»·PEaware :: JZA206 KSFO-KSAN

JZA206 :: KSFO-KSAN

FLIGHT INFORMATION

Flight Status: Arrived
Operator:
Air Canada Jazz
More flights by this operator :: More flights under this callsign
Pilot: Nick L. (7253)
Aircraft: CANADAIR CL-600 CRJ-200
(CRJ2)
More flights by this aircraft type
Origin: KSFO San Francisco Intl
United States
Destination: KSAN San Diego Intl-Lindbergh
United States
More flights between these airports :: More routes between these airports
Route: OFFSH9 MCKEY LAX BAYVU3
File this flight plan on PilotEdge
Remarks:
Altitude:
(Current/Filed)
35,000ft
Speed:
(Current/Filed)
400kts
Departed: 25-May-15 08:21 PM
Arrived: 25-May-15 09:42 PM
Distance/Time
Traveled:
388nm/1:21
Distance/Time
To Go:
Arrived

Flight Plot

Page will automatically refresh every two minutes.


Map Options




Map Legend


Flown Route
Filed Route
Departure Airport
Arrival Airport
Navaid (VOR, NDB)
Fix

Horizontal Profiles

Position Reports

Time Latitude Longitude Heading Altitude Ground
Speed
25-May-15 19:38 37.619660 -122.388027 30 18ft 0kts
25-May-15 19:39 37.619660 -122.388027 30 18ft 0kts
25-May-15 19:40 37.619660 -122.388027 30 18ft 0kts
25-May-15 19:41 37.619660 -122.388027 30 18ft 0kts
25-May-15 19:42 37.619660 -122.388027 30 18ft 0kts
25-May-15 19:43 37.619660 -122.388027 30 18ft 0kts
25-May-15 19:44 37.619660 -122.388027 30 18ft 0kts
25-May-15 19:45 37.619660 -122.388027 30 18ft 0kts
25-May-15 19:46 37.619660 -122.388027 30 18ft 0kts
25-May-15 19:47 37.619660 -122.388027 30 18ft 0kts
25-May-15 19:48 37.619660 -122.388027 30 18ft 0kts
25-May-15 19:49 37.619660 -122.388027 30 18ft 0kts
25-May-15 19:50 37.619660 -122.388027 30 18ft 0kts
25-May-15 19:51 37.619660 -122.388027 30 18ft 0kts
25-May-15 19:52 37.619660 -122.388027 30 18ft 0kts
25-May-15 19:53 37.619660 -122.388027 30 18ft 0kts
25-May-15 19:54 37.619660 -122.388027 30 18ft 0kts
25-May-15 19:55 37.619660 -122.388027 30 18ft 0kts
25-May-15 19:56 37.619660 -122.388027 30 18ft 0kts
25-May-15 19:57 37.619660 -122.388027 30 18ft 0kts
25-May-15 19:59 37.619662 -122.388041 30 18ft 0kts
25-May-15 20:00 37.619662 -122.388041 30 18ft 0kts
25-May-15 20:01 37.619662 -122.388041 30 18ft 0kts
25-May-15 20:02 37.619662 -122.388041 30 18ft 0kts
25-May-15 20:03 37.619662 -122.388041 30 18ft 0kts
25-May-15 20:04 37.619662 -122.388041 30 18ft 0kts
25-May-15 20:05 37.619273 -122.387964 301 18ft 2kts
25-May-15 20:06 37.619253 -122.389530 297 18ft 4kts
25-May-15 20:07 37.620517 -122.392167 354 18ft 5kts
25-May-15 20:08 37.622507 -122.390078 76 18ft 7kts
25-May-15 20:09 37.621642 -122.386805 118 18ft 18kts
25-May-15 20:10 37.619986 -122.382851 117 18ft 11kts
25-May-15 20:11 37.617601 -122.379495 172 18ft 10kts
25-May-15 20:12 37.613984 -122.381368 206 18ft 16kts
25-May-15 20:13 37.610752 -122.382470 116 18ft 3kts
25-May-15 20:14 37.610696 -122.382342 118 18ft 0kts
25-May-15 20:15 37.610696 -122.382342 118 18ft 0kts
25-May-15 20:16 37.610666 -122.382272 119 18ft 3kts
25-May-15 20:17 37.619046 -122.375583 24 20ft 155kts
25-May-15 20:18 37.674024 -122.362723 342 2743ft 225kts
25-May-15 20:19 37.685852 -122.425616 232 4924ft 247kts
25-May-15 20:20 37.651173 -122.493317 253 8074ft 227kts
25-May-15 20:21 37.621685 -122.566670 242 10191ft 251kts
25-May-15 20:22 37.584325 -122.636913 223 12691ft 250kts
25-May-15 20:23 37.541701 -122.705753 198 14401ft 270kts
25-May-15 20:24 37.463234 -122.700820 168 16559ft 298kts
25-May-15 20:25 37.382423 -122.681582 173 18622ft 312kts
25-May-15 20:26 37.298540 -122.659835 172 21070ft 306kts
25-May-15 20:27 37.216929 -122.638443 172 23312ft 297kts
25-May-15 20:28 37.135837 -122.617176 173 25064ft 303kts
25-May-15 20:29 37.053485 -122.595634 173 26753ft 301kts
25-May-15 20:30 36.971837 -122.574320 173 28239ft 300kts
25-May-15 20:31 36.891095 -122.553366 172 29657ft 296kts
25-May-15 20:32 36.808102 -122.531842 171 30453ft 311kts
25-May-15 20:33 36.723273 -122.509839 170 31257ft 323kts
25-May-15 20:34 36.633772 -122.486666 170 32059ft 334kts
25-May-15 20:35 36.540786 -122.462647 170 32583ft 351kts
25-May-15 20:36 36.446072 -122.438249 169 33095ft 365kts
25-May-15 20:37 36.369999 -122.354978 132 33522ft 384kts
25-May-15 20:38 36.299543 -122.252745 131 34200ft 390kts
25-May-15 20:39 36.229909 -122.151420 131 35045ft 391kts
25-May-15 20:40 36.157446 -122.046270 131 35048ft 413kts
25-May-15 20:41 36.094025 -121.954517 131 35047ft 429kts
25-May-15 20:42 36.017396 -121.843502 132 35042ft 444kts
25-May-15 20:43 35.922223 -121.706562 132 35084ft 456kts
25-May-15 20:44 35.852950 -121.607267 133 35068ft 461kts
25-May-15 20:45 35.769104 -121.487586 134 35028ft 467kts
25-May-15 20:46 35.683910 -121.366454 134 35012ft 472kts
25-May-15 20:47 35.597851 -121.244499 134 35009ft 472kts
25-May-15 20:48 35.511734 -121.122903 134 35008ft 474kts
25-May-15 20:49 35.435217 -120.995444 124 35048ft 483kts
25-May-15 20:50 35.359697 -120.861635 123 35063ft 482kts
25-May-15 20:51 35.287713 -120.734454 123 35066ft 480kts
25-May-15 20:52 35.211421 -120.600784 123 35070ft 479kts
25-May-15 20:53 35.135411 -120.467997 123 35071ft 475kts
25-May-15 20:54 35.060447 -120.337518 123 35077ft 473kts
25-May-15 20:55 34.984947 -120.206594 123 35078ft 473kts
25-May-15 20:56 34.909161 -120.075651 125 35076ft 475kts
25-May-15 20:57 34.832774 -119.944302 125 35070ft 475kts
25-May-15 20:58 34.765758 -119.828830 126 35057ft 474kts
25-May-15 20:59 34.689811 -119.698939 125 35039ft 473kts
25-May-15 21:00 34.613620 -119.569124 125 35050ft 472kts
25-May-15 21:01 34.537464 -119.439946 126 35042ft 473kts
25-May-15 21:02 34.460542 -119.309916 126 35043ft 477kts
25-May-15 21:03 34.393155 -119.196450 126 34916ft 484kts
25-May-15 21:04 34.313919 -119.063371 126 33319ft 493kts
25-May-15 21:05 34.233488 -118.928851 127 31359ft 493kts
25-May-15 21:06 34.164679 -118.813669 126 29638ft 492kts
25-May-15 21:07 34.086298 -118.683414 125 27646ft 478kts
25-May-15 21:08 34.009238 -118.555734 126 25645ft 467kts
25-May-15 21:09 33.941656 -118.444305 125 24171ft 454kts
25-May-15 21:10 33.861156 -118.339425 133 24046ft 421kts
25-May-15 21:11 33.782750 -118.239021 134 22551ft 410kts
25-May-15 21:12 33.706829 -118.142039 134 21051ft 393kts
25-May-15 21:13 33.633210 -118.048267 135 19544ft 380kts
25-May-15 21:14 33.562259 -117.958073 135 18038ft 372kts
25-May-15 21:15 33.493300 -117.870430 135 16573ft 368kts
25-May-15 21:16 33.428473 -117.788385 135 16038ft 364kts
25-May-15 21:17 33.361091 -117.703532 135 15981ft 361kts
25-May-15 21:18 33.292228 -117.616880 135 15970ft 358kts
25-May-15 21:19 33.218156 -117.539595 143 15555ft 361kts
25-May-15 21:20 33.136949 -117.468850 146 14075ft 367kts
25-May-15 21:21 33.058380 -117.405979 146 12531ft 316kts
25-May-15 21:22 32.991319 -117.352397 146 11002ft 289kts
25-May-15 21:23 32.925035 -117.299553 145 9520ft 292kts
25-May-15 21:24 32.859657 -117.247399 146 8052ft 286kts
25-May-15 21:25 32.808520 -117.186748 108 6896ft 255kts
25-May-15 21:26 32.790603 -117.112146 102 6006ft 235kts
25-May-15 21:27 32.775192 -117.037477 102 5982ft 224kts
25-May-15 21:28 32.761511 -116.971243 102 6005ft 197kts
25-May-15 21:29 32.749124 -116.910950 102 5996ft 188kts
25-May-15 21:30 32.729099 -116.870471 173 5899ft 194kts
25-May-15 21:31 32.687120 -116.899387 250 4462ft 172kts
25-May-15 21:32 32.675849 -116.950832 286 3746ft 148kts
25-May-15 21:33 32.687820 -117.001441 286 3590ft 177kts
25-May-15 21:34 32.700069 -117.051793 287 2675ft 174kts
25-May-15 21:35 32.711901 -117.100635 285 2065ft 144kts
25-May-15 21:36 32.721144 -117.139440 286 1022ft 126kts
25-May-15 21:37 32.730823 -117.178460 286 60ft 118kts
25-May-15 21:38 32.733852 -117.190907 274 22ft 7kts
25-May-15 21:39 32.733335 -117.193032 286 22ft 8kts
25-May-15 21:40 32.732607 -117.194573 208 23ft 5kts
25-May-15 21:41 32.732564 -117.195485 310 22ft 0kts
25-May-15 21:42 32.732570 -117.195494 310 22ft 0kts
25-May-15 21:43 32.732570 -117.195494 310 22ft 0kts

Navigation Log

Ident Type
Flight plan parsing failed, navigation log unavailable